sensor_id;sensor_type;location;lat;lon;timestamp;pressure;altitude;pressure_sealevel;temperature;humidity
53635;BME280;39542;-34.932;138.594;2022-11-25T00:00:10;101178.16;;;22.94;54.35
53635;BME280;39542;-34.932;138.594;2022-11-25T00:00:45;101178.34;;;22.95;54.30
53635;BME280;39542;-34.932;138.594;2022-11-25T00:01:21;101179.55;;;22.95;54.29
53635;BME280;39542;-34.932;138.594;2022-11-25T00:01:56;101179.26;;;22.94;54.33
53635;BME280;39542;-34.932;138.594;2022-11-25T00:02:30;101179.73;;;22.96;54.23
53635;BME280;39542;-34.932;138.594;2022-11-25T00:03:05;101178.47;;;22.98;54.24
53635;BME280;39542;-34.932;138.594;2022-11-25T00:03:40;101180.75;;;22.97;54.21
53635;BME280;39542;-34.932;138.594;2022-11-25T00:04:14;101179.22;;;22.96;54.25
53635;BME280;39542;-34.932;138.594;2022-11-25T00:04:50;101177.59;;;22.94;54.27
53635;BME280;39542;-34.932;138.594;2022-11-25T00:05:26;101177.12;;;22.94;54.32
53635;BME280;39542;-34.932;138.594;2022-11-25T00:06:10;101174.78;;;22.97;54.29
53635;BME280;39542;-34.932;138.594;2022-11-25T00:06:45;101173.57;;;23.01;54.18
53635;BME280;39542;-34.932;138.594;2022-11-25T00:07:19;101172.08;;;23.00;54.16
53635;BME280;39542;-34.932;138.594;2022-11-25T00:07:54;101171.90;;;22.99;54.27
53635;BME280;39542;-34.932;138.594;2022-11-25T00:08:30;101175.33;;;22.98;54.24
53635;BME280;39542;-34.932;138.594;2022-11-25T00:09:06;101173.49;;;22.98;54.20
53635;BME280;39542;-34.932;138.594;2022-11-25T00:09:41;101173.18;;;22.99;54.19
53635;BME280;39542;-34.932;138.594;2022-11-25T00:10:15;101171.89;;;23.00;54.23
53635;BME280;39542;-34.932;138.594;2022-11-25T00:10:50;101172.57;;;23.00;54.19
53635;BME280;39542;-34.932;138.594;2022-11-25T00:11:24;101171.36;;;23.01;54.19
53635;BME280;39542;-34.932;138.594;2022-11-25T00:11:59;101172.44;;;23.00;54.15
53635;BME280;39542;-34.932;138.594;2022-11-25T00:12:34;101171.97;;;23.00;54.19
53635;BME280;39542;-34.932;138.594;2022-11-25T00:13:08;101172.73;;;23.03;54.15
53635;BME280;39542;-34.932;138.594;2022-11-25T00:13:44;101172.27;;;23.03;54.15
53635;BME280;39542;-34.932;138.594;2022-11-25T00:14:18;101171.79;;;23.02;54.16
53635;BME280;39542;-34.932;138.594;2022-11-25T00:14:53;101170.42;;;23.01;54.18
53635;BME280;39542;-34.932;138.594;2022-11-25T00:15:29;101170.78;;;23.00;54.19
53635;BME280;39542;-34.932;138.594;2022-11-25T00:16:05;101169.71;;;23.02;54.21
53635;BME280;39542;-34.932;138.594;2022-11-25T00:16:40;101169.22;;;23.06;54.11
53635;BME280;39542;-34.932;138.594;2022-11-25T00:17:14;101171.05;;;23.05;54.11
53635;BME280;39542;-34.932;138.594;2022-11-25T00:17:48;101170.12;;;23.04;54.11
53635;BME280;39542;-34.932;138.594;2022-11-25T00:18:23;101174.67;;;23.04;54.12
53635;BME280;39542;-34.932;138.594;2022-11-25T00:18:59;101175.16;;;23.03;54.12
53635;BME280;39542;-34.932;138.594;2022-11-25T00:19:33;101173.69;;;23.03;54.16
53635;BME280;39542;-34.932;138.594;2022-11-25T00:20:09;101171.90;;;23.04;54.11
53635;BME280;39542;-34.932;138.594;2022-11-25T00:20:44;101175.80;;;23.04;54.09
53635;BME280;39542;-34.932;138.594;2022-11-25T00:21:20;101178.77;;;23.04;54.14
53635;BME280;39542;-34.932;138.594;2022-11-25T00:21:55;101176.71;;;23.04;54.13
53635;BME280;39542;-34.932;138.594;2022-11-25T00:22:29;101175.10;;;23.04;54.12
53635;BME280;39542;-34.932;138.594;2022-11-25T00:23:04;101172.96;;;23.05;54.05
53635;BME280;39542;-34.932;138.594;2022-11-25T00:23:38;101171.34;;;23.06;54.08
53635;BME280;39542;-34.932;138.594;2022-11-25T00:24:15;101170.96;;;23.06;54.06
53635;BME280;39542;-34.932;138.594;2022-11-25T00:24:49;101175.80;;;23.04;54.09
53635;BME280;39542;-34.932;138.594;2022-11-25T00:25:24;101172.47;;;23.03;54.14
53635;BME280;39542;-34.932;138.594;2022-11-25T00:26:04;101173.55;;;23.03;54.09
53635;BME280;39542;-34.932;138.594;2022-11-25T00:26:38;101173.23;;;23.06;54.08
53635;BME280;39542;-34.932;138.594;2022-11-25T00:27:13;101173.57;;;23.07;54.05
53635;BME280;39542;-34.932;138.594;2022-11-25T00:27:47;101174.49;;;23.07;54.07
53635;BME280;39542;-34.932;138.594;2022-11-25T00:28:26;101171.45;;;23.07;54.10
53635;BME280;39542;-34.932;138.594;2022-11-25T00:29:03;101171.47;;;23.05;54.13
53635;BME280;39542;-34.932;138.594;2022-11-25T00:29:38;101172.35;;;23.05;54.10
53635;BME280;39542;-34.932;138.594;2022-11-25T00:30:47;101169.87;;;23.08;54.05
53635;BME280;39542;-34.932;138.594;2022-11-25T00:31:23;101173.82;;;23.08;54.05
53635;BME280;39542;-34.932;138.594;2022-11-25T00:31:58;101177.47;;;23.09;54.05
53635;BME280;39542;-34.932;138.594;2022-11-25T00:32:33;101174.91;;;23.08;54.07
53635;BME280;39542;-34.932;138.594;2022-11-25T00:33:08;101172.89;;;23.08;54.05
53635;BME280;39542;-34.932;138.594;2022-11-25T00:33:43;101172.00;;;23.10;54.04
53635;BME280;39542;-34.932;138.594;2022-11-25T00:34:18;101174.04;;;23.11;54.07
53635;BME280;39542;-34.932;138.594;2022-11-25T00:34:52;101172.31;;;23.09;54.05
53635;BME280;39542;-34.932;138.594;2022-11-25T00:35:27;101175.74;;;23.07;54.06
53635;BME280;39542;-34.932;138.594;2022-11-25T00:36:03;101175.16;;;23.06;54.07
53635;BME280;39542;-34.932;138.594;2022-11-25T00:36:38;101177.26;;;23.08;54.05
53635;BME280;39542;-34.932;138.594;2022-11-25T00:37:13;101176.39;;;23.12;54.02
53635;BME280;39542;-34.932;138.594;2022-11-25T00:37:47;101174.12;;;23.13;54.01
53635;BME280;39542;-34.932;138.594;2022-11-25T00:38:21;101179.41;;;23.12;54.01
53635;BME280;39542;-34.932;138.594;2022-11-25T00:38:57;101172.55;;;23.11;54.03
53635;BME280;39542;-34.932;138.594;2022-11-25T00:39:32;101173.91;;;23.10;54.06
53635;BME280;39542;-34.932;138.594;2022-11-25T00:40:10;101173.24;;;23.11;54.04
53635;BME280;39542;-34.932;138.594;2022-11-25T00:40:45;101173.86;;;23.11;53.97
53635;BME280;39542;-34.932;138.594;2022-11-25T00:41:19;101175.83;;;23.13;53.98
53635;BME280;39542;-34.932;138.594;2022-11-25T00:41:54;101171.68;;;23.14;54.02
53635;BME280;39542;-34.932;138.594;2022-11-25T00:42:28;101167.99;;;23.15;53.99
53635;BME280;39542;-34.932;138.594;2022-11-25T00:43:03;101169.18;;;23.15;53.98
53635;BME280;39542;-34.932;138.594;2022-11-25T00:43:37;101168.48;;;23.15;53.98
53635;BME280;39542;-34.932;138.594;2022-11-25T00:44:14;101169.21;;;23.17;53.92
53635;BME280;39542;-34.932;138.594;2022-11-25T00:44:48;101168.99;;;23.16;53.95
53635;BME280;39542;-34.932;138.594;2022-11-25T00:45:23;101166.31;;;23.15;53.96
53635;BME280;39542;-34.932;138.594;2022-11-25T00:45:58;101167.94;;;23.14;54.01
53635;BME280;39542;-34.932;138.594;2022-11-25T00:46:33;101167.29;;;23.13;53.99
53635;BME280;39542;-34.932;138.594;2022-11-25T00:47:09;101164.15;;;23.17;53.92
53635;BME280;39542;-34.932;138.594;2022-11-25T00:47:44;101163.96;;;23.19;53.90
53635;BME280;39542;-34.932;138.594;2022-11-25T00:48:18;101161.12;;;23.19;53.89
53635;BME280;39542;-34.932;138.594;2022-11-25T00:48:53;101159.79;;;23.18;53.94
53635;BME280;39542;-34.932;138.594;2022-11-25T00:49:29;101156.92;;;23.16;53.95
53635;BME280;39542;-34.932;138.594;2022-11-25T00:50:04;101161.34;;;23.15;53.98
53635;BME280;39542;-34.932;138.594;2022-11-25T00:50:38;101160.44;;;23.17;53.93
53635;BME280;39542;-34.932;138.594;2022-11-25T00:51:13;101157.20;;;23.18;53.92
53635;BME280;39542;-34.932;138.594;2022-11-25T00:51:47;101156.34;;;23.19;53.91
53635;BME280;39542;-34.932;138.594;2022-11-25T00:52:24;101154.44;;;23.19;53.91
53635;BME280;39542;-34.932;138.594;2022-11-25T00:53:00;101156.09;;;23.18;53.92
53635;BME280;39542;-34.932;138.594;2022-11-25T00:53:34;101159.46;;;23.18;53.94
53635;BME280;39542;-34.932;138.594;2022-11-25T00:54:08;101157.84;;;23.19;53.92
53635;BME280;39542;-34.932;138.594;2022-11-25T00:54:43;101156.20;;;23.20;53.89
53635;BME280;39542;-34.932;138.594;2022-11-25T00:55:19;101157.54;;;23.20;53.89
53635;BME280;39542;-34.932;138.594;2022-11-25T00:55:53;101153.56;;;23.18;53.94
53635;BME280;39542;-34.932;138.594;2022-11-25T00:56:29;101151.98;;;23.17;53.92
53635;BME280;39542;-34.932;138.594;2022-11-25T00:57:03;101148.63;;;23.18;53.90
53635;BME280;39542;-34.932;138.594;2022-11-25T00:57:38;101154.09;;;23.21;53.87
53635;BME280;39542;-34.932;138.594;2022-11-25T00:58:12;101158.63;;;23.23;53.77
53635;BME280;39542;-34.932;138.594;2022-11-25T00:58:46;101157.20;;;23.22;53.88
53635;BME280;39542;-34.932;138.594;2022-11-25T00:59:21;101155.45;;;23.21;53.86
53635;BME280;39542;-34.932;138.594;2022-11-25T00:59:56;101155.11;;;23.19;53.88
53635;BME280;39542;-34.932;138.594;2022-11-25T01:00:31;101150.67;;;23.19;53.92
53635;BME280;39542;-34.932;138.594;2022-11-25T01:01:06;101150.60;;;23.20;53.87
53635;BME280;39542;-34.932;138.594;2022-11-25T01:01:40;101143.90;;;23.20;53.87
53635;BME280;39542;-34.932;138.594;2022-11-25T01:02:17;101153.36;;;23.22;53.85
53635;BME280;39542;-34.932;138.594;2022-11-25T01:02:51;101151.07;;;23.22;53.88
53635;BME280;39542;-34.932;138.594;2022-11-25T01:03:26;101146.92;;;23.22;53.83
53635;BME280;39542;-34.932;138.594;2022-11-25T01:04:00;101147.30;;;23.22;53.86
53635;BME280;39542;-34.932;138.594;2022-11-25T01:04:34;101148.57;;;23.23;53.85
53635;BME280;39542;-34.932;138.594;2022-11-25T01:05:09;101148.78;;;23.24;53.80
53635;BME280;39542;-34.932;138.594;2022-11-25T01:05:43;101147.23;;;23.22;53.82
53635;BME280;39542;-34.932;138.594;2022-11-25T01:06:19;101145.67;;;23.21;53.84
53635;BME280;39542;-34.932;138.594;2022-11-25T01:06:54;101147.43;;;23.20;53.86
53635;BME280;39542;-34.932;138.594;2022-11-25T01:07:28;101147.02;;;23.24;53.84
53635;BME280;39542;-34.932;138.594;2022-11-25T01:08:03;101147.71;;;23.26;53.83
53635;BME280;39542;-34.932;138.594;2022-11-25T01:08:38;101144.93;;;23.26;53.76
53635;BME280;39542;-34.932;138.594;2022-11-25T01:09:13;101146.41;;;23.25;53.86
53635;BME280;39542;-34.932;138.594;2022-11-25T01:09:48;101144.83;;;23.23;53.83
53635;BME280;39542;-34.932;138.594;2022-11-25T01:10:22;101142.18;;;23.23;53.84
53635;BME280;39542;-34.932;138.594;2022-11-25T01:10:59;101142.69;;;23.24;53.82
53635;BME280;39542;-34.932;138.594;2022-11-25T01:11:35;101141.81;;;23.26;53.83
53635;BME280;39542;-34.932;138.594;2022-11-25T01:12:10;101143.09;;;23.26;53.84
53635;BME280;39542;-34.932;138.594;2022-11-25T01:12:47;101141.57;;;23.26;53.77
53635;BME280;39542;-34.932;138.594;2022-11-25T01:13:23;101143.85;;;23.27;53.82
53635;BME280;39542;-34.932;138.594;2022-11-25T01:13:57;101145.36;;;23.26;53.80
53635;BME280;39542;-34.932;138.594;2022-11-25T01:14:32;101139.73;;;23.28;53.75
53635;BME280;39542;-34.932;138.594;2022-11-25T01:15:08;101142.79;;;23.28;53.77
53635;BME280;39542;-34.932;138.594;2022-11-25T01:15:42;101143.85;;;23.28;53.79
53635;BME280;39542;-34.932;138.594;2022-11-25T01:16:18;101141.70;;;23.27;53.81
53635;BME280;39542;-34.932;138.594;2022-11-25T01:16:54;101142.22;;;23.25;53.80
53635;BME280;39542;-34.932;138.594;2022-11-25T01:17:28;101141.58;;;23.26;53.78
53635;BME280;39542;-34.932;138.594;2022-11-25T01:18:03;101140.58;;;23.30;53.82
53635;BME280;39542;-34.932;138.594;2022-11-25T01:18:38;101142.96;;;23.31;53.71
53635;BME280;39542;-34.932;138.594;2022-11-25T01:19:13;101139.53;;;23.31;53.72
53635;BME280;39542;-34.932;138.594;2022-11-25T01:19:49;101138.98;;;23.30;53.75
53635;BME280;39542;-34.932;138.594;2022-11-25T01:20:24;101139.14;;;23.29;53.80
53635;BME280;39542;-34.932;138.594;2022-11-25T01:21:06;101138.80;;;23.29;53.77
53635;BME280;39542;-34.932;138.594;2022-11-25T01:21:42;101140.15;;;23.30;53.76
53635;BME280;39542;-34.932;138.594;2022-11-25T01:22:16;101139.91;;;23.30;53.75
53635;BME280;39542;-34.932;138.594;2022-11-25T01:22:52;101138.94;;;23.30;53.76
53635;BME280;39542;-34.932;138.594;2022-11-25T01:23:29;101134.79;;;23.31;53.77
53635;BME280;39542;-34.932;138.594;2022-11-25T01:24:05;101135.77;;;23.31;53.75
53635;BME280;39542;-34.932;138.594;2022-11-25T01:24:40;101136.11;;;23.32;53.77
53635;BME280;39542;-34.932;138.594;2022-11-25T01:25:14;101128.28;;;23.33;53.70
53635;BME280;39542;-34.932;138.594;2022-11-25T01:25:48;101137.38;;;23.34;53.71
53635;BME280;39542;-34.932;138.594;2022-11-25T01:26:24;101135.65;;;23.34;53.79
53635;BME280;39542;-34.932;138.594;2022-11-25T01:26:59;101136.01;;;23.31;53.75
53635;BME280;39542;-34.932;138.594;2022-11-25T01:27:34;101134.86;;;23.31;53.76
53635;BME280;39542;-34.932;138.594;2022-11-25T01:28:08;101130.88;;;23.35;53.77
53635;BME280;39542;-34.932;138.594;2022-11-25T01:28:43;101130.11;;;23.37;53.67
53635;BME280;39542;-34.932;138.594;2022-11-25T01:29:18;101129.95;;;23.37;53.70
53635;BME280;39542;-34.932;138.594;2022-11-25T01:29:53;101127.82;;;23.35;53.72
53635;BME280;39542;-34.932;138.594;2022-11-25T01:30:28;101129.08;;;23.34;53.75
53635;BME280;39542;-34.932;138.594;2022-11-25T01:31:04;101126.60;;;23.33;53.80
53635;BME280;39542;-34.932;138.594;2022-11-25T01:31:39;101124.69;;;23.34;53.74
53635;BME280;39542;-34.932;138.594;2022-11-25T01:32:14;101124.02;;;23.34;53.74
53635;BME280;39542;-34.932;138.594;2022-11-25T01:32:48;101121.07;;;23.35;53.72
53635;BME280;39542;-34.932;138.594;2022-11-25T01:33:23;101118.72;;;23.35;53.69
53635;BME280;39542;-34.932;138.594;2022-11-25T01:34:00;101120.89;;;23.36;53.71
53635;BME280;39542;-34.932;138.594;2022-11-25T01:34:35;101118.13;;;23.35;53.72
53635;BME280;39542;-34.932;138.594;2022-11-25T01:35:10;101117.03;;;23.37;53.67
53635;BME280;39542;-34.932;138.594;2022-11-25T01:35:44;101118.19;;;23.37;53.70
53635;BME280;39542;-34.932;138.594;2022-11-25T01:36:19;101115.84;;;23.36;53.72
53635;BME280;39542;-34.932;138.594;2022-11-25T01:36:54;101111.61;;;23.35;53.74
53635;BME280;39542;-34.932;138.594;2022-11-25T01:37:29;101110.76;;;23.35;53.73
53635;BME280;39542;-34.932;138.594;2022-11-25T01:38:04;101109.81;;;23.36;53.71
53635;BME280;39542;-34.932;138.594;2022-11-25T01:38:38;101113.87;;;23.38;53.70
53635;BME280;39542;-34.932;138.594;2022-11-25T01:39:17;101117.65;;;23.40;53.68
53635;BME280;39542;-34.932;138.594;2022-11-25T01:39:51;101113.25;;;23.39;53.70
53635;BME280;39542;-34.932;138.594;2022-11-25T01:40:26;101110.20;;;23.37;53.72
53635;BME280;39542;-34.932;138.594;2022-11-25T01:41:02;101108.62;;;23.36;53.72
53635;BME280;39542;-34.932;138.594;2022-11-25T01:41:37;101109.32;;;23.37;53.75
53635;BME280;39542;-34.932;138.594;2022-11-25T01:42:12;101106.83;;;23.39;53.66
53635;BME280;39542;-34.932;138.594;2022-11-25T01:42:47;101107.61;;;23.40;53.73
53635;BME280;39542;-34.932;138.594;2022-11-25T01:43:22;101105.96;;;23.40;53.67
53635;BME280;39542;-34.932;138.594;2022-11-25T01:44:15;101107.18;;;23.41;53.66
53635;BME280;39542;-34.932;138.594;2022-11-25T01:45:35;101108.29;;;23.41;53.63
53635;BME280;39542;-34.932;138.594;2022-11-25T01:46:20;101107.76;;;23.43;53.66
53635;BME280;39542;-34.932;138.594;2022-11-25T01:47:05;101107.51;;;23.43;53.71
53635;BME280;39542;-34.932;138.594;2022-11-25T01:47:46;101103.88;;;23.41;53.68
53635;BME280;39542;-34.932;138.594;2022-11-25T01:48:23;101099.90;;;23.42;53.70
53635;BME280;39542;-34.932;138.594;2022-11-25T01:49:01;101100.18;;;23.45;53.65
53635;BME280;39542;-34.932;138.594;2022-11-25T01:49:42;101097.66;;;23.46;53.67
53635;BME280;39542;-34.932;138.594;2022-11-25T01:50:19;101096.98;;;23.46;53.60
53635;BME280;39542;-34.932;138.594;2022-11-25T01:50:55;101098.91;;;23.45;53.64
53635;BME280;39542;-34.932;138.594;2022-11-25T01:51:32;101102.08;;;23.44;53.69
53635;BME280;39542;-34.932;138.594;2022-11-25T01:52:15;101098.46;;;23.46;53.65
53635;BME280;39542;-34.932;138.594;2022-11-25T01:52:53;101098.28;;;23.48;53.60
53635;BME280;39542;-34.932;138.594;2022-11-25T01:53:28;101103.80;;;23.48;53.60
53635;BME280;39542;-34.932;138.594;2022-11-25T01:54:04;101097.41;;;23.48;53.58
53635;BME280;39542;-34.932;138.594;2022-11-25T01:54:43;101097.85;;;23.48;53.57
53635;BME280;39542;-34.932;138.594;2022-11-25T01:55:23;101097.29;;;23.49;53.58
53635;BME280;39542;-34.932;138.594;2022-11-25T01:56:01;101093.56;;;23.49;53.58
53635;BME280;39542;-34.932;138.594;2022-11-25T01:56:38;101093.90;;;23.50;53.58
53635;BME280;39542;-34.932;138.594;2022-11-25T01:57:21;101091.67;;;23.49;53.58
53635;BME280;39542;-34.932;138.594;2022-11-25T01:58:01;101090.55;;;23.48;53.63
53635;BME280;39542;-34.932;138.594;2022-11-25T01:58:38;101089.76;;;23.49;53.58
53635;BME280;39542;-34.932;138.594;2022-11-25T01:59:13;101090.54;;;23.53;53.56
53635;BME280;39542;-34.932;138.594;2022-11-25T01:59:52;101086.96;;;23.54;53.56
53635;BME280;39542;-34.932;138.594;2022-11-25T02:00:29;101086.11;;;23.54;53.53
53635;BME280;39542;-34.932;138.594;2022-11-25T02:01:04;101081.75;;;23.53;53.56
53635;BME280;39542;-34.932;138.594;2022-11-25T02:01:38;101088.22;;;23.52;53.54
53635;BME280;39542;-34.932;138.594;2022-11-25T02:02:12;101083.00;;;23.54;53.51
53635;BME280;39542;-34.932;138.594;2022-11-25T02:02:51;101079.85;;;23.55;53.54
53635;BME280;39542;-34.932;138.594;2022-11-25T02:03:30;101078.57;;;23.54;53.57
53635;BME280;39542;-34.932;138.594;2022-11-25T02:04:06;101078.55;;;23.56;53.50
53635;BME280;39542;-34.932;138.594;2022-11-25T02:04:45;101081.31;;;23.57;53.44
53635;BME280;39542;-34.932;138.594;2022-11-25T02:05:24;101078.63;;;23.56;53.53
53635;BME280;39542;-34.932;138.594;2022-11-25T02:06:05;101074.96;;;23.57;53.51
53635;BME280;39542;-34.932;138.594;2022-11-25T02:06:46;101072.27;;;23.59;53.43
53635;BME280;39542;-34.932;138.594;2022-11-25T02:07:26;101071.30;;;23.57;53.55
53635;BME280;39542;-34.932;138.594;2022-11-25T02:08:05;101069.79;;;23.56;53.51
53635;BME280;39542;-34.932;138.594;2022-11-25T02:08:40;101069.72;;;23.56;53.55
53635;BME280;39542;-34.932;138.594;2022-11-25T02:09:18;101069.34;;;23.59;53.40
53635;BME280;39542;-34.932;138.594;2022-11-25T02:09:56;101069.32;;;23.61;53.47
53635;BME280;39542;-34.932;138.594;2022-11-25T02:10:32;101066.33;;;23.61;53.44
53635;BME280;39542;-34.932;138.594;2022-11-25T02:11:08;101063.33;;;23.59;53.46
53635;BME280;39542;-34.932;138.594;2022-11-25T02:11:45;101060.68;;;23.57;53.52
53635;BME280;39542;-34.932;138.594;2022-11-25T02:12:20;101062.76;;;23.59;53.51
53635;BME280;39542;-34.932;138.594;2022-11-25T02:12:56;101062.49;;;23.60;53.46
53635;BME280;39542;-34.932;138.594;2022-11-25T02:13:31;101067.42;;;23.62;53.42
53635;BME280;39542;-34.932;138.594;2022-11-25T02:14:07;101067.05;;;23.63;53.37
53635;BME280;39542;-34.932;138.594;2022-11-25T02:14:42;101066.08;;;23.62;53.44
53635;BME280;39542;-34.932;138.594;2022-11-25T02:15:17;101066.47;;;23.63;53.44
53635;BME280;39542;-34.932;138.594;2022-11-25T02:15:52;101068.15;;;23.64;53.40
53635;BME280;39542;-34.932;138.594;2022-11-25T02:16:26;101067.92;;;23.65;53.44
53635;BME280;39542;-34.932;138.594;2022-11-25T02:17:01;101063.43;;;23.65;53.38
53635;BME280;39542;-34.932;138.594;2022-11-25T02:17:36;101060.28;;;23.65;53.40
53635;BME280;39542;-34.932;138.594;2022-11-25T02:18:11;101060.51;;;23.64;53.40
53635;BME280;39542;-34.932;138.594;2022-11-25T02:18:46;101059.62;;;23.63;53.46
53635;BME280;39542;-34.932;138.594;2022-11-25T02:19:33;101057.64;;;23.66;53.40
53635;BME280;39542;-34.932;138.594;2022-11-25T02:20:14;101057.98;;;23.69;53.31
53635;BME280;39542;-34.932;138.594;2022-11-25T02:20:49;101055.35;;;23.69;53.34
53635;BME280;39542;-34.932;138.594;2022-11-25T02:21:29;101060.00;;;23.68;53.35
53635;BME280;39542;-34.932;138.594;2022-11-25T02:22:09;101057.83;;;23.67;53.41
53635;BME280;39542;-34.932;138.594;2022-11-25T02:22:58;101056.56;;;23.67;53.46
53635;BME280;39542;-34.932;138.594;2022-11-25T02:23:39;101055.38;;;23.69;53.37
53635;BME280;39542;-34.932;138.594;2022-11-25T02:24:19;101050.84;;;23.71;53.34
53635;BME280;39542;-34.932;138.594;2022-11-25T02:25:00;101050.88;;;23.71;53.33
53635;BME280;39542;-34.932;138.594;2022-11-25T02:25:37;101051.36;;;23.71;53.34
53635;BME280;39542;-34.932;138.594;2022-11-25T02:26:12;101047.48;;;23.73;53.36
53635;BME280;39542;-34.932;138.594;2022-11-25T02:26:47;101044.43;;;23.74;53.30
53635;BME280;39542;-34.932;138.594;2022-11-25T02:27:21;101044.11;;;23.74;53.31
53635;BME280;39542;-34.932;138.594;2022-11-25T02:28:00;101045.88;;;23.73;53.35
53635;BME280;39542;-34.932;138.594;2022-11-25T02:28:37;101043.75;;;23.71;53.39
53635;BME280;39542;-34.932;138.594;2022-11-25T02:29:12;101040.98;;;23.71;53.38
53635;BME280;39542;-34.932;138.594;2022-11-25T02:29:47;101041.44;;;23.74;53.27
53635;BME280;39542;-34.932;138.594;2022-11-25T02:30:23;101038.68;;;23.77;53.27
53635;BME280;39542;-34.932;138.594;2022-11-25T02:30:58;101038.41;;;23.77;53.28
53635;BME280;39542;-34.932;138.594;2022-11-25T02:31:32;101039.87;;;23.77;53.29
53635;BME280;39542;-34.932;138.594;2022-11-25T02:32:07;101039.16;;;23.75;53.31
53635;BME280;39542;-34.932;138.594;2022-11-25T02:32:45;101038.12;;;23.75;53.33
53635;BME280;39542;-34.932;138.594;2022-11-25T02:33:20;101035.00;;;23.76;53.33
53635;BME280;39542;-34.932;138.594;2022-11-25T02:33:55;101035.82;;;23.77;53.31
53635;BME280;39542;-34.932;138.594;2022-11-25T02:34:29;101036.81;;;23.80;53.24
53635;BME280;39542;-34.932;138.594;2022-11-25T02:35:18;101034.05;;;23.79;53.26
53635;BME280;39542;-34.932;138.594;2022-11-25T02:35:57;101034.30;;;23.79;53.34
53635;BME280;39542;-34.932;138.594;2022-11-25T02:36:32;101032.97;;;23.80;53.26
53635;BME280;39542;-34.932;138.594;2022-11-25T02:37:07;101030.84;;;23.82;53.23
53635;BME280;39542;-34.932;138.594;2022-11-25T02:37:41;101029.96;;;23.82;53.22
53635;BME280;39542;-34.932;138.594;2022-11-25T02:38:18;101027.38;;;23.82;53.23
53635;BME280;39542;-34.932;138.594;2022-11-25T02:38:56;101023.98;;;23.80;53.28
53635;BME280;39542;-34.932;138.594;2022-11-25T02:39:32;101023.10;;;23.81;53.30
53635;BME280;39542;-34.932;138.594;2022-11-25T02:40:07;101021.94;;;23.84;53.26
53635;BME280;39542;-34.932;138.594;2022-11-25T02:40:45;101023.63;;;23.84;53.24
53635;BME280;39542;-34.932;138.594;2022-11-25T02:41:24;101024.79;;;23.85;53.17
53635;BME280;39542;-34.932;138.594;2022-11-25T02:42:00;101023.90;;;23.83;53.22
53635;BME280;39542;-34.932;138.594;2022-11-25T02:42:36;101028.16;;;23.82;53.24
53635;BME280;39542;-34.932;138.594;2022-11-25T02:43:11;101024.64;;;23.83;53.27
53635;BME280;39542;-34.932;138.594;2022-11-25T02:43:46;101021.52;;;23.84;53.22
53635;BME280;39542;-34.932;138.594;2022-11-25T02:44:21;101021.89;;;23.86;53.20
53635;BME280;39542;-34.932;138.594;2022-11-25T02:44:56;101021.66;;;23.88;53.19
53635;BME280;39542;-34.932;138.594;2022-11-25T02:45:42;101021.19;;;23.88;53.12
53635;BME280;39542;-34.932;138.594;2022-11-25T02:46:19;101019.99;;;23.88;53.21
53635;BME280;39542;-34.932;138.594;2022-11-25T02:46:54;101016.69;;;23.90;53.10
53635;BME280;39542;-34.932;138.594;2022-11-25T02:47:28;101017.11;;;23.91;53.17
53635;BME280;39542;-34.932;138.594;2022-11-25T02:48:03;101013.94;;;23.90;53.16
53635;BME280;39542;-34.932;138.594;2022-11-25T02:48:40;101013.63;;;23.90;53.18
53635;BME280;39542;-34.932;138.594;2022-11-25T02:49:16;101013.94;;;23.89;53.17
53635;BME280;39542;-34.932;138.594;2022-11-25T02:49:51;101013.49;;;23.89;53.16
53635;BME280;39542;-34.932;138.594;2022-11-25T02:50:26;101011.76;;;23.93;53.12
53635;BME280;39542;-34.932;138.594;2022-11-25T02:51:01;101011.98;;;23.94;53.09
53635;BME280;39542;-34.932;138.594;2022-11-25T02:51:36;101009.57;;;23.93;53.07
53635;BME280;39542;-34.932;138.594;2022-11-25T02:52:12;101006.55;;;23.93;53.10
53635;BME280;39542;-34.932;138.594;2022-11-25T02:52:47;101014.64;;;23.91;53.13
53635;BME280;39542;-34.932;138.594;2022-11-25T02:53:21;101011.65;;;23.92;53.13
53635;BME280;39542;-34.932;138.594;2022-11-25T02:53:56;101010.67;;;23.93;53.10
53635;BME280;39542;-34.932;138.594;2022-11-25T02:54:31;101009.39;;;23.93;53.10
53635;BME280;39542;-34.932;138.594;2022-11-25T02:55:05;101009.87;;;23.94;53.07
53635;BME280;39542;-34.932;138.594;2022-11-25T02:55:40;101003.32;;;23.96;53.04
53635;BME280;39542;-34.932;138.594;2022-11-25T02:56:17;101007.57;;;23.96;53.02
53635;BME280;39542;-34.932;138.594;2022-11-25T02:56:51;101007.04;;;23.96;53.02
53635;BME280;39542;-34.932;138.594;2022-11-25T02:57:26;101009.53;;;23.99;53.05
53635;BME280;39542;-34.932;138.594;2022-11-25T02:58:01;101005.90;;;23.98;53.07
53635;BME280;39542;-34.932;138.594;2022-11-25T02:58:35;101005.17;;;23.98;53.06
53635;BME280;39542;-34.932;138.594;2022-11-25T02:59:11;101004.15;;;23.96;53.09
53635;BME280;39542;-34.932;138.594;2022-11-25T02:59:46;101001.86;;;23.95;53.11
53635;BME280;39542;-34.932;138.594;2022-11-25T03:00:21;100997.09;;;23.96;53.13
53635;BME280;39542;-34.932;138.594;2022-11-25T03:00:55;100995.71;;;23.99;53.02
53635;BME280;39542;-34.932;138.594;2022-11-25T03:01:30;100997.34;;;23.99;53.03
53635;BME280;39542;-34.932;138.594;2022-11-25T03:02:05;101001.03;;;24.00;53.03